Time,TemperatureF,DewpointF,PressureIn,WindDirection,WindDirectionDegrees,WindSpeedMPH,WindSpeedGustMPH,Humidity,HourlyPrecipIn,Conditions,Clouds,dailyrainin,SolarRadiationWatts/m^2,SoftwareType,DateUTC
2013-02-10 00:01:00,50.0,28.0,30.00,South,179,11.0,15.0,43,-99.99,,,-99.99,0.000000,,2013-02-10 08:01:00,
2013-02-10 00:11:00,50.0,28.0,30.00,South,180,10.0,16.0,43,-99.99,,,-99.99,0.000000,,2013-02-10 08:11:00,
2013-02-10 00:21:00,50.0,29.0,30.01,South,188,8.0,14.0,44,-99.99,,,-99.99,0.000000,,2013-02-10 08:21:00,
2013-02-10 00:31:00,50.0,28.0,30.01,South,189,6.0,11.0,43,-99.99,,,-99.99,0.000000,,2013-02-10 08:31:00,
2013-02-10 00:43:00,50.0,28.0,30.01,South,189,6.0,11.0,43,-99.99,,,-99.99,0.000000,,2013-02-10 08:43:00,
2013-02-10 00:52:00,50.0,28.0,30.00,South,188,8.0,13.0,43,-99.99,,,-99.99,0.000000,,2013-02-10 08:52:00,
2013-02-10 01:01:00,49.0,28.0,30.00,SSW,193,6.0,12.0,44,-99.99,,,-99.99,0.000000,,2013-02-10 09:01:00,
2013-02-10 01:11:00,49.0,28.0,30.00,South,190,6.0,10.0,44,-99.99,,,-99.99,0.000000,,2013-02-10 09:11:00,
2013-02-10 01:21:00,49.0,28.0,30.00,South,178,8.0,14.0,43,-99.99,,,-99.99,0.000000,,2013-02-10 09:21:00,
2013-02-10 01:31:00,49.0,28.0,30.00,South,178,9.0,14.0,43,-99.99,,,-99.99,0.000000,,2013-02-10 09:31:00,
2013-02-10 01:41:00,49.0,27.0,30.00,South,179,9.0,15.0,43,-99.99,,,-99.99,0.000000,,2013-02-10 09:41:00,
2013-02-10 01:51:00,49.0,27.0,30.00,South,174,9.0,12.0,42,-99.99,,,-99.99,0.000000,,2013-02-10 09:51:00,
2013-02-10 02:01:00,49.0,27.0,30.00,South,174,9.0,12.0,42,-99.99,,,-99.99,0.000000,,2013-02-10 10:01:00,
2013-02-10 02:11:00,49.0,27.0,30.00,South,176,9.0,14.0,42,-99.99,,,-99.99,0.000000,,2013-02-10 10:11:00,
2013-02-10 02:21:00,49.0,28.0,30.00,South,177,8.0,13.0,44,-99.99,,,-99.99,0.000000,,2013-02-10 10:21:00,
2013-02-10 02:31:00,49.0,28.0,30.00,South,177,8.0,13.0,44,-99.99,,,-99.99,0.000000,,2013-02-10 10:31:00,
2013-02-10 02:41:00,49.0,27.0,30.00,South,190,7.0,11.0,43,-99.99,,,-99.99,0.000000,,2013-02-10 10:41:00,
2013-02-10 02:51:00,49.0,27.0,29.99,South,174,13.0,19.0,43,-99.99,,,-99.99,0.000000,,2013-02-10 10:51:00,
2013-02-10 03:01:00,48.0,26.0,29.99,South,174,12.0,18.0,42,-99.99,,,-99.99,0.000000,,2013-02-10 11:01:00,
2013-02-10 03:11:00,48.0,26.0,29.99,South,174,12.0,18.0,42,-99.99,,,-99.99,0.000000,,2013-02-10 11:11:00,
2013-02-10 03:20:00,48.0,25.0,29.98,South,174,13.0,19.0,40,-99.99,,,-99.99,0.000000,,2013-02-10 11:20:00,
2013-02-10 03:21:00,49.0,26.0,29.99,South,177,13.0,19.0,42,-99.99,,,-99.99,0.000000,,2013-02-10 11:21:00,
2013-02-10 03:31:00,48.0,26.0,29.98,South,176,14.0,18.0,41,-99.99,,,-99.99,0.000000,,2013-02-10 11:31:00,
2013-02-10 03:42:00,48.0,26.0,29.98,South,174,13.0,19.0,41,-99.99,,,-99.99,0.000000,,2013-02-10 11:42:00,
2013-02-10 03:52:00,48.0,26.0,29.98,South,174,13.0,19.0,41,-99.99,,,-99.99,0.000000,,2013-02-10 11:52:00,
2013-02-10 04:01:00,48.0,25.0,29.98,South,174,13.0,19.0,40,-99.99,,,-99.99,0.000000,,2013-02-10 12:01:00,
2013-02-10 04:12:00,48.0,25.0,29.98,South,174,13.0,19.0,40,-99.99,,,-99.99,0.000000,,2013-02-10 12:12:00,
2013-02-10 04:41:00,48.0,23.0,29.97,South,175,13.0,20.0,38,-99.99,,,-99.99,0.000000,,2013-02-10 12:41:00,
2013-02-10 04:52:00,48.0,23.0,29.97,South,175,13.0,18.0,38,-99.99,,,-99.99,0.000000,,2013-02-10 12:52:00,
2013-02-10 05:02:00,48.0,22.0,29.97,South,181,11.0,18.0,36,-99.99,,,-99.99,0.000000,,2013-02-10 13:02:00,
2013-02-10 05:21:00,47.0,22.0,29.97,South,176,13.0,20.0,36,-99.99,,,-99.99,0.000000,,2013-02-10 13:21:00,
2013-02-10 05:41:00,47.0,22.0,29.98,SSW,206,6.0,11.0,37,-99.99,,,-99.99,0.000000,,2013-02-10 13:41:00,
2013-02-10 05:51:00,46.0,22.0,29.98,SW,217,6.0,10.0,38,-99.99,,,-99.99,0.000000,,2013-02-10 13:51:00,
2013-02-10 06:02:00,46.0,22.0,29.98,SSW,210,6.0,10.0,38,-99.99,,,-99.99,0.000000,,2013-02-10 14:02:00,
2013-02-10 06:11:00,46.0,21.0,29.98,SSW,204,7.0,11.0,37,-99.99,,,-99.99,0.000000,,2013-02-10 14:11:00,
2013-02-10 06:21:00,46.0,21.0,29.97,SSW,208,7.0,9.0,37,-99.99,,,-99.99,0.000000,,2013-02-10 14:21:00,
2013-02-10 06:31:00,46.0,21.0,29.97,SSW,208,7.0,9.0,37,-99.99,,,-99.99,0.000000,,2013-02-10 14:31:00,
2013-02-10 06:41:00,46.0,21.0,29.97,SSW,211,8.0,14.0,37,-99.99,,,-99.99,0.000000,,2013-02-10 14:41:00,
2013-02-10 06:52:00,46.0,21.0,29.97,SW,222,8.0,13.0,36,-99.99,,,-99.99,0.000000,,2013-02-10 14:52:00,
2013-02-10 07:01:00,46.0,21.0,29.97,SW,214,7.0,12.0,37,-99.99,,,-99.99,0.000000,,2013-02-10 15:01:00,
2013-02-10 07:21:00,46.0,20.0,29.97,SSW,210,7.0,13.0,36,-99.99,,,-99.99,10.000000,,2013-02-10 15:21:00,
2013-02-10 07:31:00,46.0,20.0,29.98,SW,218,6.0,10.0,36,-99.99,,,-99.99,10.000000,,2013-02-10 15:31:00,
2013-02-10 07:41:00,46.0,20.0,29.98,SW,217,7.0,12.0,35,-99.99,,,-99.99,10.000000,,2013-02-10 15:41:00,
2013-02-10 07:51:00,46.0,20.0,29.98,SSW,206,6.0,11.0,35,-99.99,,,-99.99,60.000000,,2013-02-10 15:51:00,
2013-02-10 08:01:00,47.0,19.0,29.98,SSW,195,4.0,7.0,33,-99.99,,,-99.99,130.000000,,2013-02-10 16:01:00,
2013-02-10 08:21:00,48.0,20.0,29.98,South,179,3.0,8.0,32,-99.99,,,-99.99,160.000000,,2013-02-10 16:21:00,
2013-02-10 08:31:00,50.0,20.0,29.98,SSE,167,3.0,5.0,31,-99.99,,,-99.99,230.000000,,2013-02-10 16:31:00,
2013-02-10 08:42:00,50.0,20.0,29.98,SSE,167,3.0,5.0,31,-99.99,,,-99.99,230.000000,,2013-02-10 16:42:00,
2013-02-10 08:51:00,47.0,28.0,29.99,North,354,5.0,7.0,47,-99.99,,,-99.99,300.000000,,2013-02-10 16:51:00,
2013-02-10 09:01:00,48.0,29.0,30.00,NNE,14,4.0,6.0,46,-99.99,,,-99.99,330.000000,,2013-02-10 17:01:00,
2013-02-10 09:11:00,49.0,29.0,30.00,NE,35,3.0,5.0,45,-99.99,,,-99.99,370.000000,,2013-02-10 17:11:00,
2013-02-10 09:21:00,49.0,29.0,30.01,NNE,32,4.0,6.0,46,-99.99,,,-99.99,400.000000,,2013-02-10 17:21:00,
2013-02-10 09:31:00,49.0,29.0,30.02,NNE,19,3.0,5.0,45,-99.99,,,-99.99,430.000000,,2013-02-10 17:31:00,
2013-02-10 09:42:00,49.0,29.0,30.02,NNE,24,3.0,5.0,45,-99.99,,,-99.99,460.000000,,2013-02-10 17:42:00,
2013-02-10 09:52:00,49.0,29.0,30.02,North,7,4.0,6.0,45,-99.99,,,-99.99,490.000000,,2013-02-10 17:52:00,
2013-02-10 10:01:00,50.0,28.0,30.03,North,1,3.0,6.0,43,-99.99,,,-99.99,520.000000,,2013-02-10 18:01:00,
2013-02-10 10:11:00,50.0,28.0,30.03,NNW,346,3.0,5.0,42,-99.99,,,-99.99,540.000000,,2013-02-10 18:11:00,
2013-02-10 10:21:00,51.0,28.0,30.03,NNW,344,2.0,6.0,40,-99.99,,,-99.99,570.000000,,2013-02-10 18:21:00,
2013-02-10 10:31:00,53.0,28.0,30.03,ENE,78,1.0,4.0,38,-99.99,,,-99.99,590.000000,,2013-02-10 18:31:00,
2013-02-10 10:41:00,53.0,28.0,30.03,SE,124,1.0,4.0,37,-99.99,,,-99.99,610.000000,,2013-02-10 18:41:00,
2013-02-10 10:52:00,54.0,28.0,30.03,North,354,3.0,5.0,37,-99.99,,,-99.99,630.000000,,2013-02-10 18:52:00,
2013-02-10 11:01:00,53.0,28.0,30.03,North,354,2.0,4.0,37,-99.99,,,-99.99,650.000000,,2013-02-10 19:01:00,
2013-02-10 11:11:00,54.0,27.0,30.03,SE,124,2.0,4.0,36,-99.99,,,-99.99,670.000000,,2013-02-10 19:11:00,
2013-02-10 11:21:00,54.0,27.0,30.03,ESE,107,2.0,5.0,34,-99.99,,,-99.99,690.000000,,2013-02-10 19:21:00,
2013-02-10 11:31:00,55.0,27.0,30.02,SE,144,1.0,5.0,34,-99.99,,,-99.99,700.000000,,2013-02-10 19:31:00,
2013-02-10 11:42:00,55.0,27.0,30.02,SSE,156,3.0,5.0,34,-99.99,,,-99.99,710.000000,,2013-02-10 19:42:00,
2013-02-10 11:51:00,55.0,27.0,30.02,North,3,2.0,4.0,33,-99.99,,,-99.99,720.000000,,2013-02-10 19:51:00,
2013-02-10 12:01:00,55.0,27.0,30.02,North,3,2.0,4.0,33,-99.99,,,-99.99,720.000000,,2013-02-10 20:01:00,
2013-02-10 12:11:00,56.0,27.0,30.01,NW,326,3.0,5.0,33,-99.99,,,-99.99,730.000000,,2013-02-10 20:11:00,
2013-02-10 12:21:00,55.0,27.0,30.01,NNE,12,2.0,5.0,33,-99.99,,,-99.99,730.000000,,2013-02-10 20:21:00,
2013-02-10 12:32:00,56.0,25.0,30.00,West,260,3.0,5.0,30,-99.99,,,-99.99,730.000000,,2013-02-10 20:32:00,
2013-02-10 12:42:00,56.0,25.0,30.00,West,260,3.0,5.0,30,-99.99,,,-99.99,730.000000,,2013-02-10 20:42:00,
2013-02-10 12:52:00,57.0,26.0,29.99,NNW,339,2.0,9.0,30,-99.99,,,-99.99,570.000000,,2013-02-10 20:52:00,
2013-02-10 13:02:00,57.0,27.0,29.99,North,352,6.0,9.0,32,-99.99,,,-99.99,680.000000,,2013-02-10 21:02:00,
2013-02-10 13:11:00,56.0,26.0,29.98,North,10,5.0,10.0,32,-99.99,,,-99.99,140.000000,,2013-02-10 21:11:00,
2013-02-10 13:21:00,55.0,26.0,29.97,NE,35,3.0,8.0,32,-99.99,,,-99.99,210.000000,,2013-02-10 21:21:00,
2013-02-10 13:31:00,56.0,26.0,29.97,NNW,336,3.0,6.0,32,-99.99,,,-99.99,180.000000,,2013-02-10 21:31:00,
2013-02-10 13:42:00,56.0,26.0,29.97,NNW,336,3.0,6.0,32,-99.99,,,-99.99,180.000000,,2013-02-10 21:42:00,
2013-02-10 13:51:00,55.0,26.0,29.96,NW,322,2.0,4.0,32,-99.99,,,-99.99,110.000000,,2013-02-10 21:51:00,
2013-02-10 14:01:00,55.0,26.0,29.96,West,275,2.0,5.0,32,-99.99,,,-99.99,140.000000,,2013-02-10 22:01:00,
2013-02-10 14:11:00,56.0,26.0,29.96,South,186,2.0,3.0,32,-99.99,,,-99.99,190.000000,,2013-02-10 22:11:00,
2013-02-10 14:21:00,56.0,25.0,29.96,SW,230,3.0,6.0,30,-99.99,,,-99.99,320.000000,,2013-02-10 22:21:00,
2013-02-10 14:31:00,57.0,25.0,29.96,NW,304,2.0,6.0,29,-99.99,,,-99.99,230.000000,,2013-02-10 22:31:00,
2013-02-10 14:42:00,57.0,24.0,29.96,WNW,297,2.0,4.0,28,-99.99,,,-99.99,190.000000,,2013-02-10 22:42:00,
2013-02-10 14:52:00,56.0,24.0,29.96,North,6,3.0,7.0,28,-99.99,,,-99.99,150.000000,,2013-02-10 22:52:00,
2013-02-10 15:01:00,56.0,23.0,29.95,NNW,338,4.0,7.0,28,-99.99,,,-99.99,150.000000,,2013-02-10 23:01:00,
2013-02-10 15:11:00,56.0,23.0,29.95,NNW,338,4.0,7.0,28,-99.99,,,-99.99,150.000000,,2013-02-10 23:11:00,
2013-02-10 15:21:00,56.0,23.0,29.95,West,279,2.0,4.0,28,-99.99,,,-99.99,100.000000,,2013-02-10 23:21:00,
2013-02-10 15:31:00,58.0,22.0,29.95,West,269,1.0,3.0,25,-99.99,,,-99.99,440.000000,,2013-02-10 23:31:00,
2013-02-10 15:42:00,59.0,22.0,29.95,WSW,250,1.0,4.0,24,-99.99,,,-99.99,430.000000,,2013-02-10 23:42:00,
2013-02-10 15:52:00,59.0,22.0,29.95,South,184,3.0,5.0,24,-99.99,,,-99.99,400.000000,,2013-02-10 23:52:00,
2013-02-10 16:01:00,58.0,23.0,29.94,SE,131,2.0,5.0,25,-99.99,,,-99.99,330.000000,,2013-02-11 00:01:00,
2013-02-10 16:11:00,58.0,23.0,29.94,SE,131,2.0,5.0,25,-99.99,,,-99.99,330.000000,,2013-02-11 00:11:00,
2013-02-10 16:21:00,58.0,23.0,29.94,SSE,158,2.0,5.0,25,-99.99,,,-99.99,290.000000,,2013-02-11 00:21:00,
2013-02-10 16:31:00,59.0,23.0,29.94,SSW,210,3.0,6.0,25,-99.99,,,-99.99,160.000000,,2013-02-11 00:31:00,
2013-02-10 16:41:00,56.0,23.0,29.93,SW,217,3.0,6.0,27,-99.99,,,-99.99,40.000000,,2013-02-11 00:41:00,
2013-02-10 16:51:00,56.0,23.0,29.93,WSW,240,2.0,6.0,27,-99.99,,,-99.99,40.000000,,2013-02-11 00:51:00,
2013-02-10 17:01:00,56.0,24.0,29.93,SSW,207,6.0,12.0,29,-99.99,,,-99.99,30.000000,,2013-02-11 01:01:00,
2013-02-10 17:11:00,56.0,24.0,29.93,SSW,207,6.0,12.0,29,-99.99,,,-99.99,30.000000,,2013-02-11 01:11:00,
2013-02-10 17:21:00,55.0,26.0,29.92,SSW,194,7.0,11.0,32,-99.99,,,-99.99,30.000000,,2013-02-11 01:21:00,
2013-02-10 17:31:00,55.0,26.0,29.92,South,175,7.0,11.0,32,-99.99,,,-99.99,30.000000,,2013-02-11 01:31:00,
2013-02-10 17:41:00,54.0,26.0,29.92,South,173,9.0,13.0,33,-99.99,,,-99.99,10.000000,,2013-02-11 01:41:00,
2013-02-10 17:52:00,54.0,25.0,29.92,South,174,10.0,14.0,33,-99.99,,,-99.99,10.000000,,2013-02-11 01:52:00,
2013-02-10 18:01:00,54.0,25.0,29.92,South,172,10.0,15.0,33,-99.99,,,-99.99,0.000000,,2013-02-11 02:01:00,
2013-02-10 18:11:00,53.0,25.0,29.92,South,174,11.0,17.0,33,-99.99,,,-99.99,0.000000,,2013-02-11 02:11:00,
2013-02-10 18:21:00,53.0,25.0,29.93,South,177,10.0,14.0,33,-99.99,,,-99.99,0.000000,,2013-02-11 02:21:00,
2013-02-10 18:31:00,53.0,25.0,29.93,South,179,12.0,18.0,34,-99.99,,,-99.99,0.000000,,2013-02-11 02:31:00,
2013-02-10 18:41:00,52.0,25.0,29.93,South,176,10.0,15.0,34,-99.99,,,-99.99,0.000000,,2013-02-11 02:41:00,
2013-02-10 18:52:00,52.0,25.0,29.93,South,176,10.0,14.0,34,-99.99,,,-99.99,0.000000,,2013-02-11 02:52:00,
2013-02-10 19:01:00,52.0,25.0,29.93,South,176,10.0,14.0,34,-99.99,,,-99.99,0.000000,,2013-02-11 03:01:00,
2013-02-10 19:11:00,52.0,24.0,29.94,South,174,9.0,14.0,34,-99.99,,,-99.99,0.000000,,2013-02-11 03:11:00,
2013-02-10 19:21:00,52.0,24.0,29.94,South,177,10.0,16.0,34,-99.99,,,-99.99,0.000000,,2013-02-11 03:21:00,
2013-02-10 19:31:00,52.0,24.0,29.94,South,177,10.0,16.0,34,-99.99,,,-99.99,0.000000,,2013-02-11 03:31:00,
2013-02-10 19:41:00,51.0,25.0,29.94,South,185,9.0,14.0,35,-99.99,,,-99.99,0.000000,,2013-02-11 03:41:00,
2013-02-10 19:52:00,51.0,24.0,29.94,South,174,11.0,17.0,34,-99.99,,,-99.99,0.000000,,2013-02-11 03:52:00,
2013-02-10 20:01:00,51.0,24.0,29.94,South,174,11.0,17.0,34,-99.99,,,-99.99,0.000000,,2013-02-11 04:01:00,
2013-02-10 20:11:00,51.0,24.0,29.94,South,179,10.0,14.0,34,-99.99,,,-99.99,0.000000,,2013-02-11 04:11:00,
2013-02-10 20:21:00,51.0,24.0,29.94,South,179,9.0,15.0,34,-99.99,,,-99.99,0.000000,,2013-02-11 04:21:00,
2013-02-10 20:31:00,51.0,24.0,29.94,South,181,10.0,18.0,34,-99.99,,,-99.99,0.000000,,2013-02-11 04:31:00,
2013-02-10 20:41:00,51.0,24.0,29.94,South,182,9.0,14.0,34,-99.99,,,-99.99,0.000000,,2013-02-11 04:41:00,
2013-02-10 20:51:00,51.0,24.0,29.95,South,177,13.0,17.0,35,-99.99,,,-99.99,0.000000,,2013-02-11 04:51:00,
2013-02-10 21:01:00,51.0,24.0,29.95,South,177,13.0,17.0,35,-99.99,,,-99.99,0.000000,,2013-02-11 05:01:00,
2013-02-10 21:11:00,51.0,24.0,29.95,South,176,12.0,17.0,35,-99.99,,,-99.99,0.000000,,2013-02-11 05:11:00,
2013-02-10 21:22:00,51.0,24.0,29.95,South,176,11.0,16.0,35,-99.99,,,-99.99,0.000000,,2013-02-11 05:22:00,
2013-02-10 21:31:00,51.0,24.0,29.95,South,178,12.0,17.0,35,-99.99,,,-99.99,0.000000,,2013-02-11 05:31:00,
2013-02-10 21:41:00,51.0,24.0,29.96,South,178,10.0,14.0,35,-99.99,,,-99.99,0.000000,,2013-02-11 05:41:00,
2013-02-10 21:52:00,50.0,24.0,29.96,South,187,7.0,12.0,35,-99.99,,,-99.99,0.000000,,2013-02-11 05:52:00,
2013-02-10 22:01:00,50.0,24.0,29.96,South,187,7.0,12.0,35,-99.99,,,-99.99,0.000000,,2013-02-11 06:01:00,
2013-02-10 22:11:00,50.0,24.0,29.96,South,185,7.0,11.0,35,-99.99,,,-99.99,0.000000,,2013-02-11 06:11:00,
2013-02-10 22:21:00,50.0,23.0,29.96,SSW,203,7.0,10.0,35,-99.99,,,-99.99,0.000000,,2013-02-11 06:21:00,
2013-02-10 22:32:00,50.0,23.0,29.96,SW,232,7.0,11.0,35,-99.99,,,-99.99,0.000000,,2013-02-11 06:32:00,
2013-02-10 22:42:00,50.0,23.0,29.96,SW,228,7.0,10.0,35,-99.99,,,-99.99,0.000000,,2013-02-11 06:42:00,
2013-02-10 22:51:00,50.0,22.0,29.96,SW,222,8.0,13.0,34,-99.99,,,-99.99,0.000000,,2013-02-11 06:51:00,
2013-02-10 23:01:00,49.0,22.0,29.96,SSW,205,8.0,12.0,34,-99.99,,,-99.99,0.000000,,2013-02-11 07:01:00,
2013-02-10 23:11:00,49.0,22.0,29.96,SSW,212,9.0,14.0,34,-99.99,,,-99.99,0.000000,,2013-02-11 07:11:00,
2013-02-10 23:21:00,49.0,22.0,29.96,SSW,212,9.0,14.0,34,-99.99,,,-99.99,0.000000,,2013-02-11 07:21:00,
2013-02-10 23:31:00,49.0,22.0,29.97,SW,214,8.0,12.0,34,-99.99,,,-99.99,0.000000,,2013-02-11 07:31:00,
2013-02-10 23:41:00,50.0,22.0,29.97,SW,224,8.0,15.0,33,-99.99,,,-99.99,0.000000,,2013-02-11 07:41:00,
2013-02-10 23:51:00,47.0,31.0,29.99,SE,132,2.0,7.0,54,-99.99,,,-99.99,0.000000,,2013-02-11 07:51:00,